The Farmers Guide 72-hour weather forecast

Enter Postcode:

Overcast

(12:00)

7.1°C

IP2 0SS

Wind Soil
Date Time Weather Temp Rain Humid Cloud Press (mph) Temp Moist
20/12 12:00 7.1°C 0.0mm 80% 80% 1024mb 20w (270 degrees) 8.6°C 0.3%
15:00 7.1°C 0.0mm 82% 68% 1025mb 19w (279 degrees) 8.6°C 0.3%
18:00 6.1°C 0.0mm 88% 68% 1027mb 16nww (282 degrees) 8.6°C 0.3%
21:00 5.2°C 0.0mm 92% 31% 1030mb 13w (273 degrees) 8.6°C 0.3%
21/12 00:00 4.6°C 0.0mm 92% 47% 1031mb 12w (272 degrees) 8.6°C 0.3%
03:00 4.6°C 0.0mm 94% 77% 1029mb 12sww (248 degrees) 8.6°C 0.3%
06:00 4.7°C 0.0mm 96% 63% 1028mb 13sww (243 degrees) 8.6°C 0.3%
09:00 5.7°C 0.0mm 94% 77% 1028mb 15sw (236 degrees) 8.6°C 0.3%
12:00 8.3°C 0.0mm 83% 70% 1026mb 18sw (234 degrees) 8.6°C 0.3%
15:00 8.7°C 0.0mm 85% 61% 1024mb 19sww (238 degrees) 8.6°C 0.3%
18:00 8.8°C 0.0mm 89% 71% 1023mb 21sw (234 degrees) 8.6°C 0.3%
21:00 9.1°C 0.0mm 93% 73% 1021mb 22sw (236 degrees) 8.6°C 0.3%
22/12 00:00 10.1°C 0.0mm 94% 85% 1019mb 22sw (230 degrees) 8.6°C 0.3%
03:00 11.1°C 0.0mm 94% 97% 1018mb 21sw (233 degrees) 8.6°C 0.3%
06:00 11.2°C 0.2mm 94% 98% 1017mb 21sww (237 degrees) 8.6°C 0.3%
09:00 11.3°C 0.0mm 92% 99% 1017mb 21sww (240 degrees) 8.6°C 0.3%
12:00 11.7°C 0.0mm 87% 99% 1017mb 21sw (236 degrees) 8.6°C 0.3%
15:00 11.5°C 0.0mm 86% 98% 1016mb 20sw (232 degrees) 8.6°C 0.3%
18:00 10.3°C 0.0mm 91% 98% 1017mb 20sw (236 degrees) 8.6°C 0.3%
21:00 10.1°C 0.0mm 88% 87% 1016mb 20sw (234 degrees) 8.6°C 0.3%
23/12 00:00 9.4°C 0.0mm 92% 85% 1015mb 22sw (235 degrees) 8.6°C 0.3%
03:00 9.5°C 0.0mm 91% 64% 1015mb 21sww (241 degrees) 8.6°C 0.3%
06:00 9.8°C 0.0mm 88% 80% 1014mb 19sww (238 degrees) 8.6°C 0.3%
09:00 10.2°C 0.0mm 85% 90% 1015mb 18sww (243 degrees) 8.6°C 0.3%
The Farmers Guide weather forecast is a free service for users of this website.
 
We now carry forecasts based on postcodes. Just enter your postcode and the weather page will display the forecast for the following 72 hours, broken down into three-hour intervals.
 
The forecast data provided for each three-hour period includes: a general graphic showing the likely weather conditions; average temperatures for the period; cloud cover; barometric pressure; wind speed and direction; humidity; and rainfall.
 
An indication of the likely soil temperature and soil moisture will also be displayed for most postcodes, although this data is not available for every area.
 
We hope you will find this service useful and would welcome any feedback from you.
 
 

Search

Read our full January issue here FREE!

Advertisments